createdAt,value
2022-10-29T00:01:35.601Z,100859.06
2022-10-29T00:04:43.463Z,100863.61
2022-10-29T00:07:48.650Z,100860.23
2022-10-29T00:10:53.836Z,100856.57
2022-10-29T00:14:01.079Z,100851.55
2022-10-29T00:17:06.425Z,100847.01
2022-10-29T00:20:12.191Z,100846.05
2022-10-29T00:23:20.333Z,100847.89
2022-10-29T00:26:25.773Z,100843.59
2022-10-29T00:29:31.101Z,100847.39
2022-10-29T00:32:36.346Z,100847.11
2022-10-29T00:35:41.632Z,100836.87
2022-10-29T00:39:04.609Z,100832.21
2022-10-29T00:42:15.107Z,100833.70
2022-10-29T00:45:22.039Z,100832.98
2022-10-29T00:48:29.361Z,100830.96
2022-10-29T00:51:35.529Z,100824.70
2022-10-29T00:54:59.286Z,100822.19
2022-10-29T00:58:05.268Z,100831.51
2022-10-29T01:01:13.326Z,100842.65
2022-10-29T01:04:36.374Z,100841.95
2022-10-29T01:08:02.086Z,100839.55
2022-10-29T01:11:13.599Z,100840.52
2022-10-29T01:14:23.313Z,100839.06
2022-10-29T01:17:51.135Z,100844.52
2022-10-29T01:21:09.979Z,100855.36
2022-10-29T01:24:27.890Z,100856.40
2022-10-29T01:27:50.747Z,100847.60
2022-10-29T01:31:21.037Z,100843.82
2022-10-29T01:34:33.388Z,100841.69
2022-10-29T01:38:03.634Z,100838.69
2022-10-29T01:41:16.043Z,100827.48
2022-10-29T01:44:26.470Z,100841.13
2022-10-29T01:47:33.152Z,100833.69
2022-10-29T01:50:39.818Z,100825.55
2022-10-29T01:53:47.160Z,100834.21
2022-10-29T01:56:56.218Z,100834.48
2022-10-29T02:00:05.557Z,100832.61
2022-10-29T02:03:40.781Z,100815.91
2022-10-29T02:06:51.081Z,100819.71
2022-10-29T02:10:18.201Z,100809.88
2022-10-29T02:13:45.647Z,100818.02
2022-10-29T02:16:51.085Z,100817.44
2022-10-29T02:20:15.391Z,100815.84
2022-10-29T02:23:38.521Z,100818.02
2022-10-29T02:26:43.821Z,100819.77
2022-10-29T02:30:09.103Z,100829.27
2022-10-29T02:33:15.293Z,100832.17
2022-10-29T02:36:38.165Z,100831.88
2022-10-29T02:39:43.616Z,100834.44
2022-10-29T02:42:48.703Z,100829.51
2022-10-29T02:46:10.319Z,100827.48
2022-10-29T02:49:15.614Z,100822.85
2022-10-29T02:52:29.583Z,100820.58
2022-10-29T02:55:34.867Z,100830.30
2022-10-29T02:58:59.279Z,100834.02
2022-10-29T03:02:04.736Z,100834.68
2022-10-29T03:05:10.424Z,100838.56
2022-10-29T03:08:33.162Z,100835.38
2022-10-29T03:11:38.552Z,100840.28
2022-10-29T03:14:44.192Z,100849.08
2022-10-29T03:17:52.583Z,100858.04
2022-10-29T03:20:58.232Z,100852.69
2022-10-29T03:24:20.875Z,100849.34
2022-10-29T03:27:26.010Z,100846.80
2022-10-29T03:30:34.477Z,100847.69
2022-10-29T03:33:57.600Z,100852.34
2022-10-29T03:37:02.806Z,100849.55
2022-10-29T03:40:25.763Z,100853.63
2022-10-29T03:43:48.703Z,100859.39
2022-10-29T03:46:54.091Z,100868.24
2022-10-29T03:49:59.311Z,100859.94
2022-10-29T03:53:09.997Z,100859.61
2022-10-29T03:56:15.146Z,100860.61
2022-10-29T03:59:21.500Z,100865.52
2022-10-29T04:02:26.883Z,100868.52
2022-10-29T04:05:32.201Z,100881.02
2022-10-29T04:08:55.896Z,100876.36
2022-10-29T04:12:01.863Z,100874.03
2022-10-29T04:15:24.973Z,100879.37
2022-10-29T04:18:48.856Z,100880.41
2022-10-29T04:28:45.509Z,100895.34
2022-10-29T04:31:51.045Z,100892.16
2022-10-29T04:34:56.449Z,100900.17
2022-10-29T04:38:08.759Z,100898.53
2022-10-29T04:41:31.686Z,100896.04
2022-10-29T04:44:37.818Z,100894.54
2022-10-29T04:47:43.217Z,100891.91
2022-10-29T04:50:49.841Z,100888.88
2022-10-29T04:53:54.998Z,100895.89
2022-10-29T04:57:00.189Z,100902.54
2022-10-29T05:00:06.886Z,100908.13
2022-10-29T05:03:12.643Z,100913.27
2022-10-29T05:06:35.830Z,100915.73
2022-10-29T05:09:41.064Z,100917.11
2022-10-29T05:12:46.113Z,100913.40
2022-10-29T05:15:53.463Z,100909.05
2022-10-29T05:19:00.950Z,100911.05
2022-10-29T05:22:06.309Z,100912.61
2022-10-29T05:25:11.533Z,100912.64
2022-10-29T05:28:19.119Z,100912.31
2022-10-29T05:31:24.502Z,100916.70
2022-10-29T05:34:29.606Z,100920.39
2022-10-29T05:37:35.002Z,100928.48
2022-10-29T05:40:59.926Z,100927.08
2022-10-29T05:44:05.581Z,100926.65
2022-10-29T05:47:28.761Z,100927.73
2022-10-29T05:50:37.721Z,100927.19
2022-10-29T05:53:42.885Z,100933.23
2022-10-29T05:57:05.746Z,100930.98
2022-10-29T06:00:12.087Z,100936.76
2022-10-29T06:03:18.201Z,100936.77
2022-10-29T06:06:23.661Z,100939.44
2022-10-29T06:09:29.932Z,100935.21
2022-10-29T06:12:37.583Z,100936.66
2022-10-29T06:15:42.928Z,100937.57
2022-10-29T06:18:51.077Z,100941.77
2022-10-29T06:21:59.494Z,100945.78
2022-10-29T06:25:23.794Z,100948.23
2022-10-29T06:28:47.664Z,100944.84
2022-10-29T06:31:52.902Z,100944.41
2022-10-29T06:34:59.238Z,100943.38
2022-10-29T06:38:10.957Z,100942.73
2022-10-29T06:41:25.211Z,100942.98
2022-10-29T06:44:30.577Z,100937.85
2022-10-29T06:47:41.135Z,100951.73
2022-10-29T06:50:46.450Z,100958.41
2022-10-29T06:54:09.204Z,100956.98
2022-10-29T06:57:14.813Z,100951.52
2022-10-29T07:00:20.211Z,100959.60
2022-10-29T07:03:43.133Z,100960.10
2022-10-29T07:07:06.174Z,100971.25
2022-10-29T07:10:12.064Z,100973.95
2022-10-29T07:13:17.237Z,100981.31
2022-10-29T07:16:22.671Z,100980.17
2022-10-29T07:19:27.937Z,100978.09
2022-10-29T07:22:36.347Z,100973.98
2022-10-29T07:25:42.024Z,100965.17
2022-10-29T07:29:04.676Z,100962.14
2022-10-29T07:32:10.035Z,100980.52
2022-10-29T07:35:15.502Z,100999.00
2022-10-29T07:38:20.805Z,100991.89
2022-10-29T07:41:27.307Z,100990.90
2022-10-29T07:44:52.284Z,101000.66
2022-10-29T07:48:02.916Z,100994.12
2022-10-29T07:51:26.154Z,101008.27
2022-10-29T07:54:31.357Z,101006.39
2022-10-29T07:57:59.153Z,100998.93
2022-10-29T08:01:22.192Z,100994.96
2022-10-29T08:04:27.455Z,100994.33
2022-10-29T08:07:32.830Z,101000.40
2022-10-29T08:10:38.058Z,101001.44
2022-10-29T08:13:43.338Z,101005.38
2022-10-29T08:16:48.640Z,101010.70
2022-10-29T08:19:53.896Z,101011.41
2022-10-29T08:23:01.876Z,101015.55
2022-10-29T08:26:24.868Z,101004.73
2022-10-29T08:29:30.232Z,101004.09
2022-10-29T08:32:35.657Z,101008.41
2022-10-29T08:35:40.995Z,101010.68
2022-10-29T08:38:47.820Z,101003.92
2022-10-29T08:41:59.136Z,101006.07
2022-10-29T08:45:11.494Z,101018.84
2022-10-29T08:48:41.290Z,101016.34
2022-10-29T08:51:49.004Z,101025.80
2022-10-29T08:54:57.781Z,101024.08
2022-10-29T08:58:06.602Z,101020.95
2022-10-29T09:01:13.041Z,101025.85
2022-10-29T09:04:25.981Z,101033.71
2022-10-29T09:08:04.575Z,101022.91
2022-10-29T09:11:20.997Z,101023.05
2022-10-29T09:14:53.896Z,101026.34
2022-10-29T09:18:09.970Z,101029.38
2022-10-29T09:21:24.712Z,101040.07
2022-10-29T09:24:35.846Z,101039.01
2022-10-29T09:27:47.546Z,101044.48
2022-10-29T09:30:57.081Z,101048.70
2022-10-29T09:34:05.385Z,101054.23
2022-10-29T09:37:17.771Z,101053.48
2022-10-29T09:40:32.212Z,101056.77
2022-10-29T09:43:41.008Z,101050.98
2022-10-29T09:47:12.907Z,101053.41
2022-10-29T09:50:23.953Z,101054.91
2022-10-29T09:53:29.588Z,101054.52
2022-10-29T09:56:35.171Z,101057.77
2022-10-29T09:59:42.341Z,101065.42
2022-10-29T10:02:50.252Z,101060.08
2022-10-29T10:05:59.672Z,101058.98
2022-10-29T10:09:22.533Z,101056.79
2022-10-29T10:12:29.038Z,101059.11
2022-10-29T10:15:35.901Z,101054.39
2022-10-29T10:22:00.581Z,101057.33
2022-10-29T10:25:27.800Z,101055.27
2022-10-29T10:28:34.994Z,101047.20
2022-10-29T10:31:40.469Z,101046.73
2022-10-29T10:34:46.130Z,101038.02
2022-10-29T10:37:51.501Z,101037.00
2022-10-29T10:40:57.778Z,101040.16
2022-10-29T10:44:06.233Z,101047.73
2022-10-29T10:47:13.241Z,101049.23
2022-10-29T10:50:20.466Z,101051.30
2022-10-29T10:53:26.655Z,101066.63
2022-10-29T10:56:32.124Z,101052.96
2022-10-29T11:00:03.887Z,101042.81
2022-10-29T11:03:31.149Z,101052.30
2022-10-29T11:06:40.194Z,101058.26
2022-10-29T11:09:47.914Z,101054.66
2022-10-29T11:12:56.105Z,101046.07
2022-10-29T11:16:03.477Z,101043.06
2022-10-29T11:19:16.090Z,101050.11
2022-10-29T11:22:23.475Z,101057.44
2022-10-29T11:25:50.107Z,101046.91
2022-10-29T11:29:16.942Z,101044.37
2022-10-29T11:32:24.986Z,101051.52
2022-10-29T11:35:38.057Z,101053.20
2022-10-29T11:38:46.538Z,101042.85
2022-10-29T11:41:56.402Z,101042.55
2022-10-29T11:45:01.815Z,101048.71
2022-10-29T11:48:21.746Z,101037.14
2022-10-29T11:51:35.819Z,101034.55
2022-10-29T11:54:54.549Z,101028.54
2022-10-29T11:58:03.580Z,101021.51
2022-10-29T12:01:10.853Z,101020.20
2022-10-29T12:04:27.421Z,101020.67
2022-10-29T12:07:59.722Z,101012.08
2022-10-29T12:11:09.351Z,101021.56
2022-10-29T12:14:36.469Z,101024.35
2022-10-29T12:17:46.378Z,101022.54
2022-10-29T12:21:12.361Z,101020.92
2022-10-29T12:24:37.337Z,101023.29
2022-10-29T12:27:44.520Z,101009.27
2022-10-29T12:30:55.496Z,101007.15
2022-10-29T12:34:04.655Z,101002.84
2022-10-29T12:37:14.728Z,101004.11
2022-10-29T12:40:22.637Z,101010.69
2022-10-29T12:43:29.187Z,101009.48
2022-10-29T12:46:37.286Z,101015.38
2022-10-29T12:49:49.030Z,101016.02
2022-10-29T12:52:58.572Z,101012.16
2022-10-29T12:56:04.883Z,101008.24
2022-10-29T12:59:27.620Z,101004.19
2022-10-29T13:02:45.930Z,100999.84
2022-10-29T13:05:51.472Z,100994.19
2022-10-29T13:08:57.908Z,100987.41
2022-10-29T13:12:04.911Z,100993.59
2022-10-29T13:15:15.560Z,101007.25
2022-10-29T13:18:46.120Z,101019.08
2022-10-29T13:22:01.727Z,101022.13
2022-10-29T13:25:20.890Z,101012.88
2022-10-29T13:28:43.874Z,100992.80
2022-10-29T13:31:52.081Z,100989.84
2022-10-29T13:35:32.637Z,100988.91
2022-10-29T13:38:58.065Z,100983.33
2022-10-29T13:42:13.043Z,100977.80
2022-10-29T13:45:18.634Z,100980.73
2022-10-29T13:48:28.523Z,100976.84
2022-10-29T13:51:38.156Z,100980.46
2022-10-29T13:54:46.747Z,100978.94
2022-10-29T13:58:16.172Z,100974.18
2022-10-29T14:01:24.005Z,100975.23
2022-10-29T14:04:31.514Z,100973.83
2022-10-29T14:07:58.458Z,100976.23
2022-10-29T14:11:08.620Z,100978.77
2022-10-29T14:14:26.318Z,100981.00
2022-10-29T14:17:31.595Z,100977.71
2022-10-29T14:20:36.888Z,100978.45
2022-10-29T14:23:42.220Z,100982.85
2022-10-29T14:26:47.453Z,100976.83
2022-10-29T14:29:54.699Z,100979.39
2022-10-29T14:33:01.041Z,100975.10
2022-10-29T14:36:10.120Z,100981.23
2022-10-29T14:39:21.578Z,100982.54
2022-10-29T14:42:31.245Z,100983.83
2022-10-29T14:45:55.620Z,100983.16
2022-10-29T14:49:03.969Z,100979.58
2022-10-29T14:52:20.735Z,100979.88
2022-10-29T14:55:27.594Z,100977.73
2022-10-29T14:58:50.298Z,100982.65
2022-10-29T15:01:57.105Z,100984.75
2022-10-29T15:05:21.808Z,100992.77
2022-10-29T15:08:46.104Z,100991.92
2022-10-29T15:12:00.844Z,100993.76
2022-10-29T15:15:11.046Z,100994.23
2022-10-29T15:18:19.205Z,100991.07
2022-10-29T15:21:27.664Z,100990.38
2022-10-29T15:24:55.247Z,100993.02
2022-10-29T15:28:00.881Z,100991.32
2022-10-29T15:31:06.743Z,100988.00
2022-10-29T15:34:16.289Z,100990.98
2022-10-29T15:37:28.903Z,100995.95
2022-10-29T15:41:12.845Z,100996.28
2022-10-29T15:44:37.323Z,100998.31
2022-10-29T15:47:43.517Z,100991.09
2022-10-29T15:51:06.516Z,100981.83
2022-10-29T15:54:16.251Z,100982.31
2022-10-29T15:57:39.155Z,100978.81
2022-10-29T16:01:02.406Z,100973.65
2022-10-29T16:04:07.739Z,100971.81
2022-10-29T16:07:14.592Z,100964.42
2022-10-29T16:10:21.223Z,100963.27
2022-10-29T16:13:44.333Z,100963.91
2022-10-29T16:16:49.544Z,100964.02
2022-10-29T16:20:17.527Z,100966.48
2022-10-29T16:23:25.891Z,100963.33
2022-10-29T16:26:48.914Z,100970.70
2022-10-29T16:29:54.084Z,100975.38
2022-10-29T16:32:59.789Z,100974.04
2022-10-29T16:36:05.773Z,100976.33
2022-10-29T16:39:13.100Z,100981.45
2022-10-29T16:42:29.704Z,100982.61
2022-10-29T16:45:34.963Z,100979.02
2022-10-29T16:48:57.966Z,100979.72
2022-10-29T16:52:03.281Z,100980.73
2022-10-29T16:55:09.008Z,100981.54
2022-10-29T16:58:31.988Z,100990.27
2022-10-29T17:01:37.248Z,100995.29
2022-10-29T17:04:42.597Z,100984.20
2022-10-29T17:07:47.904Z,100983.71
2022-10-29T17:10:58.383Z,100991.06
2022-10-29T17:14:03.851Z,100984.41
2022-10-29T17:17:09.173Z,100986.16
2022-10-29T17:20:31.769Z,100980.23
2022-10-29T17:23:36.979Z,100975.11
2022-10-29T17:26:42.481Z,100977.19
2022-10-29T17:29:47.622Z,100977.80
2022-10-29T17:32:52.894Z,100982.83
2022-10-29T17:36:02.886Z,100985.02
2022-10-29T17:39:26.596Z,100979.52
2022-10-29T17:42:32.014Z,100983.66
2022-10-29T17:45:37.330Z,100987.59
2022-10-29T17:48:43.636Z,100989.27
2022-10-29T17:51:49.123Z,100997.81
2022-10-29T17:54:54.366Z,101002.22
2022-10-29T17:57:59.851Z,100996.77
2022-10-29T18:01:06.316Z,100997.92
2022-10-29T18:04:11.689Z,101007.11
2022-10-29T18:07:17.310Z,101005.75
2022-10-29T18:10:22.646Z,101005.02
2022-10-29T18:13:46.041Z,100999.42
2022-10-29T18:17:09.389Z,100995.58
2022-10-29T18:20:31.921Z,101000.53
2022-10-29T18:23:37.223Z,100993.85
2022-10-29T18:27:00.800Z,100989.14
2022-10-29T18:30:09.200Z,100982.92
2022-10-29T18:33:14.381Z,100990.83
2022-10-29T18:36:20.902Z,100987.54
2022-10-29T18:39:26.205Z,100987.64
2022-10-29T18:42:41.389Z,100990.52
2022-10-29T18:45:46.549Z,100989.23
2022-10-29T18:49:10.622Z,100990.77
2022-10-29T18:52:15.975Z,100983.50
2022-10-29T18:55:39.061Z,100977.64
2022-10-29T18:59:02.139Z,100973.09
2022-10-29T19:02:13.006Z,100972.59
2022-10-29T19:05:18.486Z,100971.09
2022-10-29T19:08:23.864Z,100970.59
2022-10-29T19:11:29.212Z,100959.42
2022-10-29T19:14:52.074Z,100956.22
2022-10-29T19:17:57.729Z,100967.91
2022-10-29T19:21:07.023Z,100970.54
2022-10-29T19:24:13.999Z,100975.59
2022-10-29T19:27:19.307Z,100973.20
2022-10-29T19:30:24.525Z,100973.08
2022-10-29T19:33:31.048Z,100972.34
2022-10-29T19:36:47.519Z,100979.52
2022-10-29T19:40:06.447Z,100978.92
2022-10-29T19:43:11.766Z,100982.40
2022-10-29T19:46:34.313Z,100981.54
2022-10-29T19:49:39.414Z,100977.14
2022-10-29T19:52:44.689Z,100977.94
2022-10-29T19:55:50.651Z,100977.94
2022-10-29T19:58:55.933Z,100982.77
2022-10-29T20:02:01.301Z,100981.04
2022-10-29T20:05:24.440Z,100983.86
2022-10-29T20:08:30.271Z,100982.16
2022-10-29T20:11:35.574Z,100978.45
2022-10-29T20:14:58.768Z,100973.81
2022-10-29T20:18:06.106Z,100971.29
2022-10-29T20:21:11.675Z,100971.71
2022-10-29T20:24:17.138Z,100976.98
2022-10-29T20:27:22.497Z,100973.65
2022-10-29T20:30:27.811Z,100970.70
2022-10-29T20:33:34.876Z,100976.39
2022-10-29T20:36:40.357Z,100991.39
2022-10-29T20:39:46.759Z,100989.34
2022-10-29T20:42:55.122Z,100984.18
2022-10-29T20:46:17.836Z,100981.48
2022-10-29T20:49:22.914Z,100973.60
2022-10-29T20:52:48.856Z,100971.98
2022-10-29T20:56:16.108Z,100972.47
2022-10-29T20:59:22.020Z,100968.66
2022-10-29T21:02:27.387Z,100977.74
2022-10-29T21:05:34.036Z,100976.48
2022-10-29T21:08:39.917Z,100973.39
2022-10-29T21:11:45.123Z,100960.61
2022-10-29T21:14:50.427Z,100955.46
2022-10-29T21:18:13.467Z,100955.38
2022-10-29T21:21:18.927Z,100957.45
2022-10-29T21:24:24.169Z,100951.16
2022-10-29T21:27:30.325Z,100945.62
2022-10-29T21:30:35.495Z,100943.83
2022-10-29T21:33:40.745Z,100946.49
2022-10-29T21:36:46.081Z,100935.75
2022-10-29T21:40:09.941Z,100946.02
2022-10-29T21:43:15.575Z,100946.52
2022-10-29T21:46:20.799Z,100945.41
2022-10-29T21:49:48.068Z,100936.67
2022-10-29T21:52:58.469Z,100935.39
2022-10-29T21:56:05.622Z,100934.69
2022-10-29T21:59:10.897Z,100945.20
2022-10-29T22:02:16.421Z,100942.83
2022-10-29T22:05:39.365Z,100946.10
2022-10-29T22:08:44.966Z,100941.19
2022-10-29T22:11:50.900Z,100945.05
2022-10-29T22:18:37.283Z,100957.18
2022-10-29T22:21:42.589Z,100955.45
2022-10-29T22:24:47.904Z,100954.48
2022-10-29T22:27:55.513Z,100951.08
2022-10-29T22:31:02.297Z,100951.77
2022-10-29T22:34:08.481Z,100958.38
2022-10-29T22:37:13.671Z,100959.30
2022-10-29T22:40:41.808Z,100962.52
2022-10-29T22:43:47.153Z,100953.89
2022-10-29T22:46:52.483Z,100952.38
2022-10-29T22:49:59.469Z,100943.17
2022-10-29T22:53:04.763Z,100940.21
2022-10-29T22:56:14.339Z,100936.59
2022-10-29T22:59:37.515Z,100938.05
2022-10-29T23:02:42.946Z,100936.64
2022-10-29T23:06:00.677Z,100941.78
2022-10-29T23:09:07.699Z,100946.45
2022-10-29T23:12:12.900Z,100945.79
2022-10-29T23:15:18.287Z,100938.34
2022-10-29T23:18:29.385Z,100940.48
2022-10-29T23:21:34.747Z,100945.10
2022-10-29T23:24:42.938Z,100941.64
2022-10-29T23:27:48.227Z,100945.45
2022-10-29T23:30:59.204Z,100949.37
2022-10-29T23:34:04.489Z,100954.30
2022-10-29T23:37:11.988Z,100948.61
2022-10-29T23:40:34.946Z,100945.17
2022-10-29T23:43:40.400Z,100944.61
2022-10-29T23:46:45.473Z,100941.38
2022-10-29T23:49:50.796Z,100943.64
2022-10-29T23:52:56.226Z,100942.28
2022-10-29T23:56:18.973Z,100941.57
2022-10-29T23:59:24.209Z,100939.36
